sensor_id;sensor_type;location;lat;lon;timestamp;P1;durP1;ratioP1;P2;durP2;ratioP2
79122;SDS011;68526;44.600;26.032;2023-04-26T00:00:10;17.17;;;13.63;;
79122;SDS011;68526;44.600;26.032;2023-04-26T00:00:27;16.23;;;13.88;;
79122;SDS011;68526;44.600;26.032;2023-04-26T00:00:43;15.43;;;13.73;;
79122;SDS011;68526;44.600;26.032;2023-04-26T00:01:00;16.13;;;13.35;;
79122;SDS011;68526;44.600;26.032;2023-04-26T00:01:19;18.02;;;13.55;;
79122;SDS011;68526;44.600;26.032;2023-04-26T00:01:36;16.58;;;13.77;;
79122;SDS011;68526;44.600;26.032;2023-04-26T00:01:52;16.00;;;13.73;;
79122;SDS011;68526;44.600;26.032;2023-04-26T00:02:08;16.00;;;13.27;;
79122;SDS011;68526;44.600;26.032;2023-04-26T00:02:25;15.38;;;12.95;;
79122;SDS011;68526;44.600;26.032;2023-04-26T00:02:43;14.63;;;12.63;;
79122;SDS011;68526;44.600;26.032;2023-04-26T00:02:59;14.98;;;12.82;;
79122;SDS011;68526;44.600;26.032;2023-04-26T00:03:16;16.40;;;13.18;;
79122;SDS011;68526;44.600;26.032;2023-04-26T00:03:33;18.08;;;13.73;;
79122;SDS011;68526;44.600;26.032;2023-04-26T00:03:48;18.10;;;13.77;;
79122;SDS011;68526;44.600;26.032;2023-04-26T00:04:05;15.88;;;13.50;;
79122;SDS011;68526;44.600;26.032;2023-04-26T00:04:22;15.50;;;13.25;;
79122;SDS011;68526;44.600;26.032;2023-04-26T00:04:38;15.23;;;12.82;;
79122;SDS011;68526;44.600;26.032;2023-04-26T00:04:54;15.52;;;12.68;;
79122;SDS011;68526;44.600;26.032;2023-04-26T00:05:12;15.13;;;13.25;;
79122;SDS011;68526;44.600;26.032;2023-04-26T00:05:28;15.60;;;13.40;;
79122;SDS011;68526;44.600;26.032;2023-04-26T00:05:45;15.25;;;13.02;;
79122;SDS011;68526;44.600;26.032;2023-04-26T00:06:01;16.55;;;13.35;;
79122;SDS011;68526;44.600;26.032;2023-04-26T00:06:23;16.85;;;13.50;;
79122;SDS011;68526;44.600;26.032;2023-04-26T00:06:38;15.98;;;13.27;;
79122;SDS011;68526;44.600;26.032;2023-04-26T00:06:54;15.23;;;13.05;;
79122;SDS011;68526;44.600;26.032;2023-04-26T00:07:11;15.13;;;12.93;;
79122;SDS011;68526;44.600;26.032;2023-04-26T00:07:28;15.85;;;13.60;;
79122;SDS011;68526;44.600;26.032;2023-04-26T00:07:44;16.30;;;13.90;;
79122;SDS011;68526;44.600;26.032;2023-04-26T00:08:00;17.05;;;14.15;;
79122;SDS011;68526;44.600;26.032;2023-04-26T00:08:18;16.00;;;13.63;;
79122;SDS011;68526;44.600;26.032;2023-04-26T00:08:34;15.77;;;13.15;;
79122;SDS011;68526;44.600;26.032;2023-04-26T00:08:50;16.05;;;13.40;;
79122;SDS011;68526;44.600;26.032;2023-04-26T00:09:06;15.43;;;13.50;;
79122;SDS011;68526;44.600;26.032;2023-04-26T00:09:22;16.13;;;13.80;;
79122;SDS011;68526;44.600;26.032;2023-04-26T00:09:38;15.65;;;13.50;;
79122;SDS011;68526;44.600;26.032;2023-04-26T00:09:56;17.23;;;13.30;;
79122;SDS011;68526;44.600;26.032;2023-04-26T00:10:13;15.48;;;13.27;;
79122;SDS011;68526;44.600;26.032;2023-04-26T00:10:29;16.17;;;14.48;;
79122;SDS011;68526;44.600;26.032;2023-04-26T00:10:44;16.00;;;14.10;;
79122;SDS011;68526;44.600;26.032;2023-04-26T00:11:00;15.80;;;13.38;;
79122;SDS011;68526;44.600;26.032;2023-04-26T00:11:16;15.60;;;13.23;;
79122;SDS011;68526;44.600;26.032;2023-04-26T00:11:32;16.02;;;12.98;;
79122;SDS011;68526;44.600;26.032;2023-04-26T00:11:49;16.00;;;12.63;;
79122;SDS011;68526;44.600;26.032;2023-04-26T00:12:05;17.75;;;12.80;;
79122;SDS011;68526;44.600;26.032;2023-04-26T00:12:21;18.55;;;13.10;;
79122;SDS011;68526;44.600;26.032;2023-04-26T00:12:37;16.90;;;13.30;;
79122;SDS011;68526;44.600;26.032;2023-04-26T00:12:55;16.08;;;13.40;;
79122;SDS011;68526;44.600;26.032;2023-04-26T00:13:11;17.00;;;13.40;;
79122;SDS011;68526;44.600;26.032;2023-04-26T00:13:26;16.07;;;13.00;;
79122;SDS011;68526;44.600;26.032;2023-04-26T00:13:42;15.85;;;13.07;;
79122;SDS011;68526;44.600;26.032;2023-04-26T00:13:58;16.77;;;13.48;;
79122;SDS011;68526;44.600;26.032;2023-04-26T00:14:14;16.27;;;13.32;;
79122;SDS011;68526;44.600;26.032;2023-04-26T00:14:31;14.88;;;12.52;;
79122;SDS011;68526;44.600;26.032;2023-04-26T00:15:06;15.23;;;12.90;;
79122;SDS011;68526;44.600;26.032;2023-04-26T00:15:23;15.00;;;12.95;;
79122;SDS011;68526;44.600;26.032;2023-04-26T00:15:39;15.70;;;12.68;;
79122;SDS011;68526;44.600;26.032;2023-04-26T00:15:56;15.50;;;12.80;;
79122;SDS011;68526;44.600;26.032;2023-04-26T00:16:12;15.85;;;13.25;;
79122;SDS011;68526;44.600;26.032;2023-04-26T00:16:28;17.17;;;13.45;;
79122;SDS011;68526;44.600;26.032;2023-04-26T00:16:43;17.02;;;13.60;;
79122;SDS011;68526;44.600;26.032;2023-04-26T00:16:59;14.83;;;13.13;;
79122;SDS011;68526;44.600;26.032;2023-04-26T00:17:17;14.80;;;12.93;;
79122;SDS011;68526;44.600;26.032;2023-04-26T00:17:33;14.88;;;13.10;;
79122;SDS011;68526;44.600;26.032;2023-04-26T00:17:50;14.73;;;12.73;;
79122;SDS011;68526;44.600;26.032;2023-04-26T00:18:06;15.00;;;12.68;;
79122;SDS011;68526;44.600;26.032;2023-04-26T00:18:23;15.87;;;12.67;;
79122;SDS011;68526;44.600;26.032;2023-04-26T00:18:39;16.08;;;13.10;;
79122;SDS011;68526;44.600;26.032;2023-04-26T00:18:54;15.25;;;13.13;;
79122;SDS011;68526;44.600;26.032;2023-04-26T00:19:10;15.77;;;13.18;;
79122;SDS011;68526;44.600;26.032;2023-04-26T00:19:27;16.25;;;12.77;;
79122;SDS011;68526;44.600;26.032;2023-04-26T00:19:43;15.10;;;12.53;;
79122;SDS011;68526;44.600;26.032;2023-04-26T00:19:59;14.73;;;12.45;;
79122;SDS011;68526;44.600;26.032;2023-04-26T00:20:15;14.90;;;12.50;;
79122;SDS011;68526;44.600;26.032;2023-04-26T00:20:31;15.73;;;12.77;;
79122;SDS011;68526;44.600;26.032;2023-04-26T00:20:48;14.85;;;12.93;;
79122;SDS011;68526;44.600;26.032;2023-04-26T00:21:04;15.05;;;13.20;;
79122;SDS011;68526;44.600;26.032;2023-04-26T00:21:20;15.20;;;13.05;;
79122;SDS011;68526;44.600;26.032;2023-04-26T00:21:35;15.53;;;12.80;;
79122;SDS011;68526;44.600;26.032;2023-04-26T00:21:52;15.77;;;13.00;;
79122;SDS011;68526;44.600;26.032;2023-04-26T00:22:07;14.93;;;13.10;;
79122;SDS011;68526;44.600;26.032;2023-04-26T00:22:24;14.27;;;12.68;;
79122;SDS011;68526;44.600;26.032;2023-04-26T00:22:41;14.57;;;12.13;;
79122;SDS011;68526;44.600;26.032;2023-04-26T00:22:57;15.98;;;13.07;;
79122;SDS011;68526;44.600;26.032;2023-04-26T00:23:13;15.32;;;12.77;;
79122;SDS011;68526;44.600;26.032;2023-04-26T00:23:29;14.30;;;12.40;;
79122;SDS011;68526;44.600;26.032;2023-04-26T00:23:46;14.65;;;12.52;;
79122;SDS011;68526;44.600;26.032;2023-04-26T00:24:03;14.45;;;12.40;;
79122;SDS011;68526;44.600;26.032;2023-04-26T00:24:19;14.60;;;12.32;;
79122;SDS011;68526;44.600;26.032;2023-04-26T00:24:35;14.70;;;12.43;;
79122;SDS011;68526;44.600;26.032;2023-04-26T00:24:51;15.20;;;12.80;;
79122;SDS011;68526;44.600;26.032;2023-04-26T00:25:07;15.57;;;13.10;;
79122;SDS011;68526;44.600;26.032;2023-04-26T00:25:24;15.00;;;13.40;;
79122;SDS011;68526;44.600;26.032;2023-04-26T00:25:40;14.93;;;13.23;;
79122;SDS011;68526;44.600;26.032;2023-04-26T00:25:56;14.77;;;12.30;;
79122;SDS011;68526;44.600;26.032;2023-04-26T00:26:12;14.60;;;12.38;;
79122;SDS011;68526;44.600;26.032;2023-04-26T00:26:28;14.95;;;12.38;;
79122;SDS011;68526;44.600;26.032;2023-04-26T00:26:44;15.02;;;13.05;;
79122;SDS011;68526;44.600;26.032;2023-04-26T00:27:00;15.55;;;13.75;;
79122;SDS011;68526;44.600;26.032;2023-04-26T00:27:22;15.73;;;13.07;;
79122;SDS011;68526;44.600;26.032;2023-04-26T00:27:38;14.90;;;12.65;;
79122;SDS011;68526;44.600;26.032;2023-04-26T00:27:55;14.25;;;12.73;;
79122;SDS011;68526;44.600;26.032;2023-04-26T00:28:11;14.68;;;12.82;;
79122;SDS011;68526;44.600;26.032;2023-04-26T00:28:27;14.77;;;12.52;;
79122;SDS011;68526;44.600;26.032;2023-04-26T00:28:43;15.65;;;12.35;;
79122;SDS011;68526;44.600;26.032;2023-04-26T00:28:59;15.85;;;12.63;;
79122;SDS011;68526;44.600;26.032;2023-04-26T00:29:15;16.00;;;13.10;;
79122;SDS011;68526;44.600;26.032;2023-04-26T00:29:31;15.43;;;13.00;;
79122;SDS011;68526;44.600;26.032;2023-04-26T00:29:48;14.30;;;12.60;;
79122;SDS011;68526;44.600;26.032;2023-04-26T00:30:05;13.70;;;12.25;;
79122;SDS011;68526;44.600;26.032;2023-04-26T00:30:21;13.98;;;12.13;;
79122;SDS011;68526;44.600;26.032;2023-04-26T00:30:37;14.73;;;12.32;;
79122;SDS011;68526;44.600;26.032;2023-04-26T00:30:56;13.90;;;12.38;;
79122;SDS011;68526;44.600;26.032;2023-04-26T00:31:13;14.50;;;12.57;;
79122;SDS011;68526;44.600;26.032;2023-04-26T00:31:30;16.30;;;12.52;;
79122;SDS011;68526;44.600;26.032;2023-04-26T00:31:46;15.98;;;12.35;;
79122;SDS011;68526;44.600;26.032;2023-04-26T00:32:02;15.15;;;12.40;;
79122;SDS011;68526;44.600;26.032;2023-04-26T00:32:18;14.77;;;12.48;;
79122;SDS011;68526;44.600;26.032;2023-04-26T00:32:34;14.37;;;12.30;;
79122;SDS011;68526;44.600;26.032;2023-04-26T00:32:50;14.55;;;12.27;;
79122;SDS011;68526;44.600;26.032;2023-04-26T00:33:07;14.40;;;12.55;;
79122;SDS011;68526;44.600;26.032;2023-04-26T00:33:24;14.38;;;12.88;;
79122;SDS011;68526;44.600;26.032;2023-04-26T00:33:40;13.90;;;12.40;;
79122;SDS011;68526;44.600;26.032;2023-04-26T00:33:56;13.95;;;12.45;;
79122;SDS011;68526;44.600;26.032;2023-04-26T00:34:12;14.27;;;12.77;;
79122;SDS011;68526;44.600;26.032;2023-04-26T00:34:31;13.88;;;12.38;;
79122;SDS011;68526;44.600;26.032;2023-04-26T00:34:47;14.45;;;12.27;;
79122;SDS011;68526;44.600;26.032;2023-04-26T00:35:04;15.15;;;12.45;;
79122;SDS011;68526;44.600;26.032;2023-04-26T00:35:21;15.18;;;12.38;;
79122;SDS011;68526;44.600;26.032;2023-04-26T00:35:37;14.32;;;12.32;;
79122;SDS011;68526;44.600;26.032;2023-04-26T00:35:53;14.02;;;12.52;;
79122;SDS011;68526;44.600;26.032;2023-04-26T00:36:08;13.77;;;12.35;;
79122;SDS011;68526;44.600;26.032;2023-04-26T00:36:25;13.90;;;12.10;;
79122;SDS011;68526;44.600;26.032;2023-04-26T00:36:42;13.70;;;12.02;;
79122;SDS011;68526;44.600;26.032;2023-04-26T00:36:57;14.40;;;12.55;;
79122;SDS011;68526;44.600;26.032;2023-04-26T00:37:13;14.67;;;12.60;;
79122;SDS011;68526;44.600;26.032;2023-04-26T00:37:29;14.43;;;12.13;;
79122;SDS011;68526;44.600;26.032;2023-04-26T00:37:45;13.93;;;11.88;;
79122;SDS011;68526;44.600;26.032;2023-04-26T00:38:01;14.13;;;12.63;;
79122;SDS011;68526;44.600;26.032;2023-04-26T00:38:18;14.68;;;13.10;;
79122;SDS011;68526;44.600;26.032;2023-04-26T00:38:33;15.40;;;12.80;;
79122;SDS011;68526;44.600;26.032;2023-04-26T00:38:49;14.90;;;12.65;;
79122;SDS011;68526;44.600;26.032;2023-04-26T00:39:05;14.30;;;12.73;;
79122;SDS011;68526;44.600;26.032;2023-04-26T00:39:21;15.15;;;12.73;;
79122;SDS011;68526;44.600;26.032;2023-04-26T00:39:37;15.77;;;13.20;;
79122;SDS011;68526;44.600;26.032;2023-04-26T00:39:52;15.85;;;13.38;;
79122;SDS011;68526;44.600;26.032;2023-04-26T00:40:11;14.45;;;12.75;;
79122;SDS011;68526;44.600;26.032;2023-04-26T00:40:29;14.77;;;12.70;;
79122;SDS011;68526;44.600;26.032;2023-04-26T00:40:45;14.45;;;12.73;;
79122;SDS011;68526;44.600;26.032;2023-04-26T00:41:01;14.97;;;13.10;;
79122;SDS011;68526;44.600;26.032;2023-04-26T00:41:17;15.23;;;13.07;;
79122;SDS011;68526;44.600;26.032;2023-04-26T00:41:34;13.95;;;12.45;;
79122;SDS011;68526;44.600;26.032;2023-04-26T00:41:50;13.98;;;12.35;;
79122;SDS011;68526;44.600;26.032;2023-04-26T00:42:06;13.50;;;11.95;;
79122;SDS011;68526;44.600;26.032;2023-04-26T00:42:22;13.88;;;12.38;;
79122;SDS011;68526;44.600;26.032;2023-04-26T00:42:38;15.75;;;12.88;;
79122;SDS011;68526;44.600;26.032;2023-04-26T00:42:58;14.20;;;12.27;;
79122;SDS011;68526;44.600;26.032;2023-04-26T00:43:14;14.13;;;12.63;;
79122;SDS011;68526;44.600;26.032;2023-04-26T00:43:30;14.57;;;12.88;;
79122;SDS011;68526;44.600;26.032;2023-04-26T00:43:45;14.60;;;12.57;;
79122;SDS011;68526;44.600;26.032;2023-04-26T00:44:01;14.35;;;12.52;;
79122;SDS011;68526;44.600;26.032;2023-04-26T00:44:17;15.15;;;12.40;;
79122;SDS011;68526;44.600;26.032;2023-04-26T00:44:33;14.40;;;12.07;;
79122;SDS011;68526;44.600;26.032;2023-04-26T00:44:50;12.90;;;11.55;;
79122;SDS011;68526;44.600;26.032;2023-04-26T00:45:09;13.63;;;12.23;;
79122;SDS011;68526;44.600;26.032;2023-04-26T00:45:25;13.68;;;12.27;;
79122;SDS011;68526;44.600;26.032;2023-04-26T00:45:41;13.40;;;12.00;;
79122;SDS011;68526;44.600;26.032;2023-04-26T00:45:57;14.07;;;12.57;;
79122;SDS011;68526;44.600;26.032;2023-04-26T00:46:14;14.90;;;12.98;;
79122;SDS011;68526;44.600;26.032;2023-04-26T00:46:30;15.45;;;12.52;;
79122;SDS011;68526;44.600;26.032;2023-04-26T00:46:46;15.20;;;12.30;;
79122;SDS011;68526;44.600;26.032;2023-04-26T00:47:03;15.63;;;12.80;;
79122;SDS011;68526;44.600;26.032;2023-04-26T00:47:18;15.95;;;13.18;;
79122;SDS011;68526;44.600;26.032;2023-04-26T00:47:35;14.88;;;13.00;;
79122;SDS011;68526;44.600;26.032;2023-04-26T00:47:52;15.15;;;12.65;;
79122;SDS011;68526;44.600;26.032;2023-04-26T00:48:08;15.05;;;12.40;;
79122;SDS011;68526;44.600;26.032;2023-04-26T00:48:25;14.27;;;12.77;;
79122;SDS011;68526;44.600;26.032;2023-04-26T00:48:42;14.20;;;12.70;;
79122;SDS011;68526;44.600;26.032;2023-04-26T00:48:58;13.43;;;12.02;;
79122;SDS011;68526;44.600;26.032;2023-04-26T00:49:15;13.55;;;12.15;;
79122;SDS011;68526;44.600;26.032;2023-04-26T00:49:34;13.80;;;12.30;;
79122;SDS011;68526;44.600;26.032;2023-04-26T00:49:50;14.52;;;12.38;;
79122;SDS011;68526;44.600;26.032;2023-04-26T00:50:06;14.15;;;12.20;;
79122;SDS011;68526;44.600;26.032;2023-04-26T00:50:22;13.70;;;12.30;;
79122;SDS011;68526;44.600;26.032;2023-04-26T00:50:39;14.25;;;12.35;;
79122;SDS011;68526;44.600;26.032;2023-04-26T00:50:54;14.88;;;12.45;;
79122;SDS011;68526;44.600;26.032;2023-04-26T00:51:12;15.45;;;12.50;;
79122;SDS011;68526;44.600;26.032;2023-04-26T00:51:28;15.23;;;12.50;;
79122;SDS011;68526;44.600;26.032;2023-04-26T00:51:45;15.00;;;13.10;;
79122;SDS011;68526;44.600;26.032;2023-04-26T00:52:01;14.52;;;13.02;;
79122;SDS011;68526;44.600;26.032;2023-04-26T00:52:17;14.30;;;12.77;;
79122;SDS011;68526;44.600;26.032;2023-04-26T00:52:33;15.65;;;12.85;;
79122;SDS011;68526;44.600;26.032;2023-04-26T00:52:50;16.48;;;12.88;;
79122;SDS011;68526;44.600;26.032;2023-04-26T00:53:07;15.93;;;13.25;;
79122;SDS011;68526;44.600;26.032;2023-04-26T00:53:23;15.27;;;12.90;;
79122;SDS011;68526;44.600;26.032;2023-04-26T00:53:41;14.70;;;12.75;;
79122;SDS011;68526;44.600;26.032;2023-04-26T00:53:57;15.88;;;12.82;;
79122;SDS011;68526;44.600;26.032;2023-04-26T00:54:14;15.27;;;13.15;;
79122;SDS011;68526;44.600;26.032;2023-04-26T00:54:30;14.50;;;12.98;;
79122;SDS011;68526;44.600;26.032;2023-04-26T00:54:47;14.13;;;12.60;;
79122;SDS011;68526;44.600;26.032;2023-04-26T00:55:03;14.73;;;12.80;;
79122;SDS011;68526;44.600;26.032;2023-04-26T00:55:20;15.60;;;13.00;;
79122;SDS011;68526;44.600;26.032;2023-04-26T00:55:37;15.15;;;12.77;;
79122;SDS011;68526;44.600;26.032;2023-04-26T00:55:53;14.63;;;12.52;;
79122;SDS011;68526;44.600;26.032;2023-04-26T00:56:09;15.10;;;12.57;;
79122;SDS011;68526;44.600;26.032;2023-04-26T00:56:26;14.13;;;12.35;;
79122;SDS011;68526;44.600;26.032;2023-04-26T00:56:42;13.48;;;12.07;;
79122;SDS011;68526;44.600;26.032;2023-04-26T00:56:58;13.82;;;12.20;;
79122;SDS011;68526;44.600;26.032;2023-04-26T00:57:14;14.30;;;12.43;;
79122;SDS011;68526;44.600;26.032;2023-04-26T00:57:31;14.75;;;11.93;;
79122;SDS011;68526;44.600;26.032;2023-04-26T00:57:47;15.80;;;12.65;;
79122;SDS011;68526;44.600;26.032;2023-04-26T00:58:03;16.65;;;13.35;;
79122;SDS011;68526;44.600;26.032;2023-04-26T00:58:19;17.13;;;13.80;;
79122;SDS011;68526;44.600;26.032;2023-04-26T00:58:35;15.40;;;13.40;;
79122;SDS011;68526;44.600;26.032;2023-04-26T00:58:51;14.57;;;12.30;;
79122;SDS011;68526;44.600;26.032;2023-04-26T00:59:08;15.43;;;12.55;;
79122;SDS011;68526;44.600;26.032;2023-04-26T00:59:24;14.05;;;12.35;;
79122;SDS011;68526;44.600;26.032;2023-04-26T00:59:41;14.20;;;12.40;;
79122;SDS011;68526;44.600;26.032;2023-04-26T00:59:57;15.07;;;12.77;;
79122;SDS011;68526;44.600;26.032;2023-04-26T01:00:13;14.32;;;12.52;;
79122;SDS011;68526;44.600;26.032;2023-04-26T01:00:30;14.27;;;12.23;;
79122;SDS011;68526;44.600;26.032;2023-04-26T01:00:47;14.93;;;12.30;;
79122;SDS011;68526;44.600;26.032;2023-04-26T01:01:04;15.98;;;12.95;;
79122;SDS011;68526;44.600;26.032;2023-04-26T01:01:21;16.05;;;12.52;;
79122;SDS011;68526;44.600;26.032;2023-04-26T01:01:37;16.13;;;12.13;;
79122;SDS011;68526;44.600;26.032;2023-04-26T01:01:54;15.23;;;12.27;;
79122;SDS011;68526;44.600;26.032;2023-04-26T01:02:10;14.63;;;12.70;;
79122;SDS011;68526;44.600;26.032;2023-04-26T01:02:27;14.98;;;12.88;;
79122;SDS011;68526;44.600;26.032;2023-04-26T01:02:43;14.33;;;12.60;;
79122;SDS011;68526;44.600;26.032;2023-04-26T01:02:59;14.05;;;12.43;;
79122;SDS011;68526;44.600;26.032;2023-04-26T01:03:15;13.85;;;12.32;;
79122;SDS011;68526;44.600;26.032;2023-04-26T01:03:32;13.82;;;12.35;;
79122;SDS011;68526;44.600;26.032;2023-04-26T01:03:49;14.00;;;12.27;;
79122;SDS011;68526;44.600;26.032;2023-04-26T01:04:05;14.48;;;12.35;;
79122;SDS011;68526;44.600;26.032;2023-04-26T01:04:22;14.68;;;12.02;;
79122;SDS011;68526;44.600;26.032;2023-04-26T01:04:41;13.48;;;11.98;;
79122;SDS011;68526;44.600;26.032;2023-04-26T01:04:59;13.57;;;12.13;;
79122;SDS011;68526;44.600;26.032;2023-04-26T01:05:15;14.10;;;12.15;;
79122;SDS011;68526;44.600;26.032;2023-04-26T01:05:32;14.05;;;12.23;;
79122;SDS011;68526;44.600;26.032;2023-04-26T01:05:47;13.30;;;11.90;;
79122;SDS011;68526;44.600;26.032;2023-04-26T01:06:03;13.27;;;11.88;;
79122;SDS011;68526;44.600;26.032;2023-04-26T01:06:19;14.43;;;12.13;;
79122;SDS011;68526;44.600;26.032;2023-04-26T01:06:36;14.75;;;12.38;;
79122;SDS011;68526;44.600;26.032;2023-04-26T01:06:53;13.82;;;12.43;;
79122;SDS011;68526;44.600;26.032;2023-04-26T01:07:11;13.45;;;11.88;;
79122;SDS011;68526;44.600;26.032;2023-04-26T01:07:26;14.13;;;12.20;;
79122;SDS011;68526;44.600;26.032;2023-04-26T01:07:42;13.90;;;12.00;;
79122;SDS011;68526;44.600;26.032;2023-04-26T01:07:59;13.93;;;11.77;;
79122;SDS011;68526;44.600;26.032;2023-04-26T01:08:16;16.10;;;11.83;;
79122;SDS011;68526;44.600;26.032;2023-04-26T01:08:34;17.42;;;12.30;;
79122;SDS011;68526;44.600;26.032;2023-04-26T01:08:51;14.50;;;12.45;;
79122;SDS011;68526;44.600;26.032;2023-04-26T01:09:09;14.02;;;12.50;;
79122;SDS011;68526;44.600;26.032;2023-04-26T01:09:25;13.55;;;11.88;;
79122;SDS011;68526;44.600;26.032;2023-04-26T01:09:41;13.90;;;12.00;;
79122;SDS011;68526;44.600;26.032;2023-04-26T01:09:58;13.60;;;11.60;;
79122;SDS011;68526;44.600;26.032;2023-04-26T01:10:15;13.65;;;11.88;;
79122;SDS011;68526;44.600;26.032;2023-04-26T01:10:31;13.68;;;12.15;;
79122;SDS011;68526;44.600;26.032;2023-04-26T01:10:49;13.68;;;11.93;;
79122;SDS011;68526;44.600;26.032;2023-04-26T01:11:06;14.63;;;12.00;;
79122;SDS011;68526;44.600;26.032;2023-04-26T01:11:22;14.02;;;11.80;;
79122;SDS011;68526;44.600;26.032;2023-04-26T01:11:39;13.63;;;12.23;;
79122;SDS011;68526;44.600;26.032;2023-04-26T01:11:57;14.35;;;12.50;;
79122;SDS011;68526;44.600;26.032;2023-04-26T01:12:14;14.13;;;12.15;;
79122;SDS011;68526;44.600;26.032;2023-04-26T01:12:30;13.65;;;11.77;;
79122;SDS011;68526;44.600;26.032;2023-04-26T01:12:47;13.25;;;11.82;;
79122;SDS011;68526;44.600;26.032;2023-04-26T01:13:04;13.50;;;12.10;;
79122;SDS011;68526;44.600;26.032;2023-04-26T01:13:20;14.80;;;11.75;;
79122;SDS011;68526;44.600;26.032;2023-04-26T01:13:35;14.88;;;11.38;;
79122;SDS011;68526;44.600;26.032;2023-04-26T01:13:52;14.65;;;11.73;;
79122;SDS011;68526;44.600;26.032;2023-04-26T01:14:08;14.02;;;11.82;;
79122;SDS011;68526;44.600;26.032;2023-04-26T01:14:25;12.88;;;11.55;;
79122;SDS011;68526;44.600;26.032;2023-04-26T01:14:41;13.27;;;11.88;;
79122;SDS011;68526;44.600;26.032;2023-04-26T01:14:59;13.27;;;11.88;;
79122;SDS011;68526;44.600;26.032;2023-04-26T01:15:17;13.93;;;11.80;;
79122;SDS011;68526;44.600;26.032;2023-04-26T01:15:32;14.38;;;12.20;;
79122;SDS011;68526;44.600;26.032;2023-04-26T01:15:50;13.75;;;12.25;;
79122;SDS011;68526;44.600;26.032;2023-04-26T01:16:06;14.40;;;12.07;;
79122;SDS011;68526;44.600;26.032;2023-04-26T01:16:22;14.13;;;11.60;;
79122;SDS011;68526;44.600;26.032;2023-04-26T01:16:38;13.70;;;11.80;;
79122;SDS011;68526;44.600;26.032;2023-04-26T01:16:56;13.60;;;12.20;;
79122;SDS011;68526;44.600;26.032;2023-04-26T01:17:12;13.57;;;12.15;;
79122;SDS011;68526;44.600;26.032;2023-04-26T01:17:28;14.30;;;12.20;;
79122;SDS011;68526;44.600;26.032;2023-04-26T01:17:44;14.15;;;11.70;;
79122;SDS011;68526;44.600;26.032;2023-04-26T01:18:01;13.50;;;11.77;;
79122;SDS011;68526;44.600;26.032;2023-04-26T01:18:17;14.03;;;11.80;;
79122;SDS011;68526;44.600;26.032;2023-04-26T01:18:35;15.38;;;11.85;;
79122;SDS011;68526;44.600;26.032;2023-04-26T01:18:51;15.30;;;12.45;;
79122;SDS011;68526;44.600;26.032;2023-04-26T01:19:07;14.88;;;12.48;;
79122;SDS011;68526;44.600;26.032;2023-04-26T01:19:26;14.70;;;11.80;;
79122;SDS011;68526;44.600;26.032;2023-04-26T01:19:46;15.15;;;11.55;;
79122;SDS011;68526;44.600;26.032;2023-04-26T01:20:02;13.82;;;11.60;;
79122;SDS011;68526;44.600;26.032;2023-04-26T01:20:19;13.20;;;11.80;;
79122;SDS011;68526;44.600;26.032;2023-04-26T01:20:35;13.57;;;12.02;;
79122;SDS011;68526;44.600;26.032;2023-04-26T01:20:50;13.23;;;11.82;;
79122;SDS011;68526;44.600;26.032;2023-04-26T01:21:08;13.60;;;11.90;;
79122;SDS011;68526;44.600;26.032;2023-04-26T01:21:25;13.02;;;11.65;;
79122;SDS011;68526;44.600;26.032;2023-04-26T01:21:41;13.15;;;11.55;;
79122;SDS011;68526;44.600;26.032;2023-04-26T01:21:57;13.68;;;11.70;;
79122;SDS011;68526;44.600;26.032;2023-04-26T01:22:13;15.80;;;12.30;;
79122;SDS011;68526;44.600;26.032;2023-04-26T01:22:32;14.77;;;12.07;;
79122;SDS011;68526;44.600;26.032;2023-04-26T01:22:48;13.03;;;11.63;;
79122;SDS011;68526;44.600;26.032;2023-04-26T01:23:04;13.32;;;11.85;;
79122;SDS011;68526;44.600;26.032;2023-04-26T01:23:21;14.05;;;11.80;;
79122;SDS011;68526;44.600;26.032;2023-04-26T01:23:37;13.65;;;11.52;;
79122;SDS011;68526;44.600;26.032;2023-04-26T01:23:53;13.47;;;11.53;;
79122;SDS011;68526;44.600;26.032;2023-04-26T01:24:10;12.82;;;11.50;;
79122;SDS011;68526;44.600;26.032;2023-04-26T01:24:26;13.48;;;11.90;;
79122;SDS011;68526;44.600;26.032;2023-04-26T01:24:43;13.25;;;11.82;;
79122;SDS011;68526;44.600;26.032;2023-04-26T01:25:00;13.35;;;11.63;;
79122;SDS011;68526;44.600;26.032;2023-04-26T01:25:19;14.10;;;11.95;;
79122;SDS011;68526;44.600;26.032;2023-04-26T01:25:36;12.77;;;11.48;;
79122;SDS011;68526;44.600;26.032;2023-04-26T01:25:52;13.38;;;11.27;;
79122;SDS011;68526;44.600;26.032;2023-04-26T01:26:10;14.68;;;11.75;;
79122;SDS011;68526;44.600;26.032;2023-04-26T01:26:26;14.82;;;12.18;;
79122;SDS011;68526;44.600;26.032;2023-04-26T01:26:42;13.95;;;12.00;;
79122;SDS011;68526;44.600;26.032;2023-04-26T01:27:00;13.27;;;11.82;;
79122;SDS011;68526;44.600;26.032;2023-04-26T01:27:18;14.20;;;12.10;;
79122;SDS011;68526;44.600;26.032;2023-04-26T01:27:34;14.23;;;11.88;;
79122;SDS011;68526;44.600;26.032;2023-04-26T01:27:50;14.23;;;11.50;;
79122;SDS011;68526;44.600;26.032;2023-04-26T01:28:05;14.43;;;11.30;;
79122;SDS011;68526;44.600;26.032;2023-04-26T01:28:22;13.70;;;11.75;;
79122;SDS011;68526;44.600;26.032;2023-04-26T01:28:38;13.60;;;11.88;;
79122;SDS011;68526;44.600;26.032;2023-04-26T01:28:54;13.43;;;11.50;;
79122;SDS011;68526;44.600;26.032;2023-04-26T01:29:13;13.37;;;11.97;;
79122;SDS011;68526;44.600;26.032;2023-04-26T01:29:30;13.30;;;11.97;;
79122;SDS011;68526;44.600;26.032;2023-04-26T01:29:46;12.98;;;11.57;;
79122;SDS011;68526;44.600;26.032;2023-04-26T01:30:03;13.32;;;11.85;;
79122;SDS011;68526;44.600;26.032;2023-04-26T01:30:20;12.98;;;11.57;;
79122;SDS011;68526;44.600;26.032;2023-04-26T01:30:35;13.88;;;11.68;;
79122;SDS011;68526;44.600;26.032;2023-04-26T01:30:51;14.80;;;12.03;;
79122;SDS011;68526;44.600;26.032;2023-04-26T01:31:07;13.63;;;12.00;;
79122;SDS011;68526;44.600;26.032;2023-04-26T01:31:24;13.55;;;12.15;;
79122;SDS011;68526;44.600;26.032;2023-04-26T01:31:40;14.25;;;11.95;;
79122;SDS011;68526;44.600;26.032;2023-04-26T01:31:56;15.52;;;12.15;;
79122;SDS011;68526;44.600;26.032;2023-04-26T01:32:12;13.90;;;12.25;;
79122;SDS011;68526;44.600;26.032;2023-04-26T01:32:27;13.30;;;11.80;;
79122;SDS011;68526;44.600;26.032;2023-04-26T01:32:44;15.05;;;12.35;;
79122;SDS011;68526;44.600;26.032;2023-04-26T01:33:00;14.82;;;12.50;;
79122;SDS011;68526;44.600;26.032;2023-04-26T01:33:16;14.38;;;12.07;;
79122;SDS011;68526;44.600;26.032;2023-04-26T01:33:32;13.13;;;11.57;;
79122;SDS011;68526;44.600;26.032;2023-04-26T01:33:48;12.98;;;11.57;;
79122;SDS011;68526;44.600;26.032;2023-04-26T01:34:03;14.15;;;12.10;;
79122;SDS011;68526;44.600;26.032;2023-04-26T01:34:20;14.30;;;12.18;;
79122;SDS011;68526;44.600;26.032;2023-04-26T01:34:36;14.15;;;11.65;;
79122;SDS011;68526;44.600;26.032;2023-04-26T01:34:52;13.70;;;11.40;;
79122;SDS011;68526;44.600;26.032;2023-04-26T01:35:08;13.10;;;11.63;;
79122;SDS011;68526;44.600;26.032;2023-04-26T01:35:24;14.23;;;12.07;;